Flight Track Log - Related Links

Times and Time Zones

All times are in EDT time to prevent confusion due to time zone crossing. See the TFX146 flight status page for this flight to view local times or setup timezone preferences in your user account.

Time Position Orientation Groundspeed Altitude Reporting Facility
EDT Latitude Longitude Course Direction KTS MPH feet Rate Location/Type
Thu 09:01:06 AM -33.8784 150.9970 43° Northeast 187 215 1,700  Level Aus ATC (RADAR)
Thu 09:02:11 AM -33.8322 151.0481 43° Northeast 210 242 3,000 1,108 Climbing Aus ATC (RADAR)
Thu 09:03:16 AM -33.7833 151.1039 43° Northeast 218 251 4,100 1,062 Climbing Aus ATC (RADAR)
Thu 09:04:21 AM -33.7348 151.1632 46° Northeast 224 258 5,300 923 Climbing Aus ATC (RADAR)
Thu 09:05:26 AM -33.6768 151.2029 30° Northeast 220 253 6,100 877 Climbing Aus ATC (RADAR)
Thu 09:06:31 AM -33.6147 151.2234 15° North 207 238 7,200 884 Climbing Aus ATC (RADAR)
Thu 09:07:35 AM -33.5508 151.2432 15° North 224 258 8,000 823 Climbing Aus ATC (RADAR)
Thu 09:08:35 AM -33.4894 151.2615 14° North 216 249 8,900 1,000 Climbing Aus ATC (RADAR)
Thu 09:09:35 AM -33.4320 151.2789 14° North 203 234 10,000 960 Climbing Aus ATC (RADAR)
Thu 09:10:40 AM -33.3712 151.3005 17° North 204 235 10,900 800 Climbing Aus ATC (RADAR)
Thu 09:11:50 AM -33.3043 151.3260 18° North 221 254 11,800 831 Climbing Aus ATC (RADAR)
Thu 09:12:50 AM -33.2467 151.3513 20° North 199 229 12,700 528 Climbing Aus ATC (RADAR)
Thu 09:13:55 AM -33.1851 151.3821 23° Northeast 217 250 12,900 166 Climbing Aus ATC (RADAR)
Thu 09:15:15 AM -33.1003 151.4167 19° North 240 276 13,100 46 Climbing Aus ATC (RADAR)
Thu 09:16:05 AM -33.0465 151.4375 18° North 238 274 13,000 -52 Descending Aus ATC (RADAR)
Thu 09:17:10 AM -32.9740 151.4660 18° North 239 275 13,000  Level Aus ATC (RADAR)
Thu 09:18:19 AM -32.8983 151.4958 18° North 250 288 13,000  Level Aus ATC (RADAR)
Thu 09:19:20 AM -32.8309 151.5234 19° North 244 281 13,000  Level Aus ATC (RADAR)
Thu 09:20:25 AM -32.7583 151.5514 18° North 247 284 13,000  Level Aus ATC (RADAR)
Thu 09:21:25 AM -32.6917 151.5773 18° North 252 290 13,000  Level Aus ATC (RADAR)
Thu 09:22:29 AM -32.6199 151.6044 18° North 250 288 13,000  Level Aus ATC (RADAR)
Thu 09:23:29 AM -32.5536 151.6303 18° North 248 285 13,000  Level Aus ATC (RADAR)
Thu 09:24:39 AM -32.4756 151.6600 18° North 252 290 13,000  Level Aus ATC (RADAR)
Thu 09:25:43 AM -32.4031 151.6851 16° North 254 292 13,000  Level Aus ATC (RADAR)
Thu 09:26:49 AM -32.3311 151.7178 21° North 251 289 13,000  Level Aus ATC (RADAR)
Thu 09:27:54 AM -32.2600 151.7472 19° North 251 289 13,000  Level Aus ATC (RADAR)
Thu 09:28:58 AM -32.1889 151.7745 18° North 250 288 13,000  Level Aus ATC (RADAR)
Thu 09:30:09 AM -32.1105 151.8065 19° North 252 290 13,000  Level Aus ATC (RADAR)
Thu 09:31:09 AM -32.0439 151.8325 18° North 253 291 13,000  Level Aus ATC (RADAR)
Thu 09:32:14 AM -31.9716 151.8602 18° North 255 293 13,000 90 Level Aus ATC (RADAR)
Thu 09:33:22 AM -31.8959 151.8898 18° North 247 284 13,200 93 Climbing Aus ATC (RADAR)
Thu 09:34:23 AM -31.8289 151.9183 20° North 255 293 13,200  Level Aus ATC (RADAR)
Thu 09:35:28 AM -31.7573 151.9462 18° North 254 292 13,200  Level Aus ATC (RADAR)
Thu 09:36:33 AM -31.6853 151.9734 18° North 249 287 13,200  Level Aus ATC (RADAR)
Thu 09:37:38 AM -31.6138 152.0002 18° North 246 283 13,200  Level Aus ATC (RADAR)
Thu 09:38:38 AM -31.5502 152.0257 19° North 246 283 13,200  Level Aus ATC (RADAR)
Thu 09:39:48 AM -31.4740 152.0564 19° North 250 288 13,200  Level Aus ATC (RADAR)
Thu 09:40:48 AM -31.4075 152.0824 18° North 250 288 13,200  Level Aus ATC (RADAR)
Thu 09:41:53 AM -31.3371 152.1104 19° North 248 285 13,200  Level Aus ATC (RADAR)
Thu 09:42:57 AM -31.2671 152.1378 18° North 247 284 13,200  Level Aus ATC (RADAR)
Thu 09:44:02 AM -31.1979 152.1645 18° North 241 277 13,200  Level Aus ATC (RADAR)
Thu 09:45:12 AM -31.1231 152.1926 18° North 240 276 13,200  Level Aus ATC (RADAR)
Thu 09:46:12 AM -31.0605 152.2182 19° North 240 276 13,200  Level Aus ATC (RADAR)
Thu 09:47:16 AM -30.9931 152.2455 19° North 239 275 13,200  Level Aus ATC (RADAR)
Thu 09:48:17 AM -30.9275 152.2702 18° North 242 278 13,200  Level Aus ATC (RADAR)
Thu 09:49:26 AM -30.8537 152.2981 18° North 240 276 13,200  Level Aus ATC (RADAR)
Thu 09:50:27 AM -30.7878 152.3224 18° North 242 278 13,200  Level Aus ATC (RADAR)
Thu 09:51:36 AM -30.7148 152.3508 19° North 238 274 13,200  Level Aus ATC (RADAR)
Thu 09:52:37 AM -30.6499 152.3745 17° North 240 276 13,200  Level Aus ATC (RADAR)
Thu 09:53:41 AM -30.5833 152.4022 20° North 235 270 13,200  Level Aus ATC (RADAR)
Thu 09:54:46 AM -30.5151 152.4285 18° North 237 273 13,200  Level Aus ATC (RADAR)
Thu 09:55:51 AM -30.4460 152.4552 18° North 242 278 13,200  Level Aus ATC (RADAR)
Thu 09:56:51 AM -30.3804 152.4802 18° North 247 284 13,200  Level Aus ATC (RADAR)
Thu 09:58:05 AM -30.2983 152.5086 17° North 246 283 13,200  Level Aus ATC (RADAR)
Thu 09:59:06 AM -30.2321 152.5343 19° North 248 285 13,200  Level Aus ATC (RADAR)
Thu 10:00:20 AM -30.1518 152.5659 19° North 246 283 13,200  Level Aus ATC (RADAR)
Thu 10:01:16 AM -30.0905 152.5897 19° North 250 288 13,200  Level Aus ATC (RADAR)
Thu 10:02:20 AM -30.0217 152.6174 19° North 243 280 13,200  Level Aus ATC (RADAR)
Thu 10:03:21 AM -29.9543 152.6421 18° North 247 284 13,200  Level Aus ATC (RADAR)
Thu 10:04:25 AM -29.8839 152.6709 20° North 248 285 13,200  Level Aus ATC (RADAR)
Thu 10:05:30 AM -29.8131 152.6973 18° North 247 284 13,200  Level Aus ATC (RADAR)
Thu 10:06:34 AM -29.7441 152.7230 18° North 246 283 13,200  Level Aus ATC (RADAR)
Thu 10:07:40 AM -29.6722 152.7524 20° North 246 283 13,200  Level Aus ATC (RADAR)
Thu 10:08:40 AM -29.6068 152.7747 17° North 247 284 13,200  Level Aus ATC (RADAR)
Thu 10:09:45 AM -29.5360 152.7999 17° North 244 281 13,200  Level Aus ATC (RADAR)
Thu 10:10:50 AM -29.4659 152.8278 19° North 246 283 13,200  Level Aus ATC (RADAR)
Thu 10:11:55 AM -29.3944 152.8528 17° North 248 285 13,200  Level Aus ATC (RADAR)
Thu 10:12:59 AM -29.3254 152.8765 17° North 247 284 13,200  Level Aus ATC (RADAR)
Thu 10:14:05 AM -29.2529 152.9056 19° North 246 283 13,200  Level Aus ATC (RADAR)
Thu 10:15:10 AM -29.1824 152.9326 18° North 244 281 13,200  Level Aus ATC (RADAR)
Thu 10:16:10 AM -29.1172 152.9565 18° North 244 281 13,200  Level Aus ATC (RADAR)
Thu 10:17:14 AM -29.0443 152.9730 11° North 244 281 13,200  Level Aus ATC (RADAR)
Thu 10:18:19 AM -28.9716 152.9901 12° North 245 282 13,200  Level Aus ATC (RADAR)
Thu 10:19:29 AM -28.8931 153.0105 13° North 249 287 13,200  Level Aus ATC (RADAR)
Thu 10:20:24 AM -28.8319 153.0283 14° North 246 283 13,200  Level Aus ATC (RADAR)
Thu 10:21:24 AM -28.7653 153.0482 15° North 248 285 13,200  Level Aus ATC (RADAR)
Thu 10:22:34 AM -28.6874 153.0711 14° North 246 283 13,200  Level Aus ATC (RADAR)
Thu 10:23:39 AM -28.6141 153.0921 14° North 251 289 13,200  Level Aus ATC (RADAR)
Thu 10:24:39 AM -28.5467 153.1108 14° North 247 284 13,200  Level Aus ATC (RADAR)
Thu 10:25:49 AM -28.4679 153.1320 13° North 248 285 13,200  Level Aus ATC (RADAR)
Thu 10:26:54 AM -28.3943 153.1513 13° North 252 290 13,200 -387 Level Aus ATC (RADAR)
Thu 10:27:53 AM -28.3245 153.1724 15° North 260 299 12,400 -698 Descending Aus ATC (RADAR)
Thu 10:29:03 AM -28.2424 153.1984 16° North 266 306 11,700 -738 Descending Aus ATC (RADAR)
Thu 10:30:03 AM -28.1669 153.2218 15° North 281 323 10,800 -785 Descending Aus ATC (RADAR)
Thu 10:31:13 AM -28.0803 153.2473 15° North 273 314 10,000 -557 Descending Aus ATC (RADAR)
Thu 10:32:23 AM -27.9961 153.2699 13° North 266 306 9,500 -692 Descending Aus ATC (RADAR)
Thu 10:33:23 AM -27.9240 153.2886 13° North 270 311 8,500 -1,104 Descending Aus ATC (RADAR)
Thu 10:34:28 AM -27.8433 153.3117 14° North 277 319 7,200 -1,062 Descending Aus ATC (RADAR)
Thu 10:35:33 AM -27.7670 153.3327 14° North 249 287 6,200 -831 Descending Aus ATC (RADAR)
Thu 10:36:38 AM -27.7037 153.3440 North 214 246 5,400 -1,015 Descending Aus ATC (RADAR)
Thu 10:37:43 AM -27.6370 153.3380 355° North 228 262 4,000 -651 Descending Aus ATC (RADAR)
Thu 10:38:47 AM -27.5796 153.3375 360° North 180 207 4,000 -242 Level Aus ATC (RADAR)
Thu 10:39:47 AM -27.5283 153.3366 359° North 186 214 3,500 -816 Descending Aus ATC (RADAR)
Thu 10:40:52 AM -27.4946 153.2914 310° West 173 199 2,300 -923 Descending Aus ATC (RADAR)
Thu 10:41:57 AM -27.4670 153.2406 302° West 174 200 1,500 -480 Descending Aus ATC (RADAR)
Thu 10:42:57 AM -27.4443 153.1949 299° West 170 196 1,300 -240 Descending Aus ATC (RADAR)
Thu 10:44:02 AM -27.4068 153.1639 324° Northwest 150 173 1,000 -508 Descending Aus ATC (RADAR)
Thu 10:45:07 AM -27.3706 153.1361 326° Northwest 139 160 200 -738 Descending Aus ATC (RADAR)

Login

Don't have an account? Register now (free) for customized features, flight alerts, and more!